sensor_id;sensor_type;location;lat;lon;timestamp;temperature;humidity
41256;DHT22;26989;45.524;10.938;2023-04-28T00:00:04;11.60;98.20
41256;DHT22;26989;45.524;10.938;2023-04-28T00:02:31;11.60;98.50
41256;DHT22;26989;45.524;10.938;2023-04-28T00:05:00;11.70;98.40
41256;DHT22;26989;45.524;10.938;2023-04-28T00:07:27;11.70;98.50
41256;DHT22;26989;45.524;10.938;2023-04-28T00:09:54;11.70;98.50
41256;DHT22;26989;45.524;10.938;2023-04-28T00:12:22;11.70;98.50
41256;DHT22;26989;45.524;10.938;2023-04-28T00:14:49;11.70;98.70
41256;DHT22;26989;45.524;10.938;2023-04-28T00:17:16;11.70;98.70
41256;DHT22;26989;45.524;10.938;2023-04-28T00:19:43;11.70;98.40
41256;DHT22;26989;45.524;10.938;2023-04-28T00:22:10;11.60;98.50
41256;DHT22;26989;45.524;10.938;2023-04-28T00:24:37;11.60;98.70
41256;DHT22;26989;45.524;10.938;2023-04-28T00:27:04;11.70;98.70
41256;DHT22;26989;45.524;10.938;2023-04-28T00:29:31;11.80;98.40
41256;DHT22;26989;45.524;10.938;2023-04-28T00:31:58;11.70;98.50
41256;DHT22;26989;45.524;10.938;2023-04-28T00:34:24;11.70;98.40
41256;DHT22;26989;45.524;10.938;2023-04-28T00:36:51;11.70;98.40
41256;DHT22;26989;45.524;10.938;2023-04-28T00:39:18;11.80;98.20
41256;DHT22;26989;45.524;10.938;2023-04-28T00:41:46;11.80;98.20
41256;DHT22;26989;45.524;10.938;2023-04-28T00:44:13;11.70;98.20
41256;DHT22;26989;45.524;10.938;2023-04-28T00:46:40;11.80;98.20
41256;DHT22;26989;45.524;10.938;2023-04-28T00:49:07;11.80;97.90
41256;DHT22;26989;45.524;10.938;2023-04-28T00:51:34;11.80;98.00
41256;DHT22;26989;45.524;10.938;2023-04-28T00:54:01;11.80;98.10
41256;DHT22;26989;45.524;10.938;2023-04-28T00:56:29;11.60;98.40
41256;DHT22;26989;45.524;10.938;2023-04-28T00:58:59;11.70;98.50
41256;DHT22;26989;45.524;10.938;2023-04-28T01:01:26;11.80;98.30
41256;DHT22;26989;45.524;10.938;2023-04-28T01:03:53;11.60;98.30
41256;DHT22;26989;45.524;10.938;2023-04-28T01:06:20;11.70;98.30
41256;DHT22;26989;45.524;10.938;2023-04-28T01:08:48;11.90;98.00
41256;DHT22;26989;45.524;10.938;2023-04-28T01:11:16;11.90;98.20
41256;DHT22;26989;45.524;10.938;2023-04-28T01:13:43;11.80;98.50
41256;DHT22;26989;45.524;10.938;2023-04-28T01:16:10;11.60;98.70
41256;DHT22;26989;45.524;10.938;2023-04-28T01:18:38;11.60;98.90
41256;DHT22;26989;45.524;10.938;2023-04-28T01:21:07;11.80;98.70
41256;DHT22;26989;45.524;10.938;2023-04-28T01:23:34;11.80;98.70
41256;DHT22;26989;45.524;10.938;2023-04-28T01:26:00;11.90;98.70
41256;DHT22;26989;45.524;10.938;2023-04-28T01:28:28;11.90;98.70
41256;DHT22;26989;45.524;10.938;2023-04-28T01:30:55;11.80;98.80
41256;DHT22;26989;45.524;10.938;2023-04-28T01:33:22;11.90;98.80
41256;DHT22;26989;45.524;10.938;2023-04-28T01:35:49;11.90;98.90
41256;DHT22;26989;45.524;10.938;2023-04-28T01:38:15;11.90;98.80
41256;DHT22;26989;45.524;10.938;2023-04-28T01:40:42;11.90;98.90
41256;DHT22;26989;45.524;10.938;2023-04-28T01:43:09;11.90;99.10
41256;DHT22;26989;45.524;10.938;2023-04-28T01:45:36;11.90;99.10
41256;DHT22;26989;45.524;10.938;2023-04-28T01:48:03;11.90;99.10
41256;DHT22;26989;45.524;10.938;2023-04-28T01:50:30;12.00;98.90
41256;DHT22;26989;45.524;10.938;2023-04-28T01:52:56;12.10;98.90
41256;DHT22;26989;45.524;10.938;2023-04-28T01:55:24;12.10;98.80
41256;DHT22;26989;45.524;10.938;2023-04-28T01:57:51;12.10;98.90
41256;DHT22;26989;45.524;10.938;2023-04-28T02:00:18;12.20;98.90
41256;DHT22;26989;45.524;10.938;2023-04-28T02:02:44;12.00;99.10
41256;DHT22;26989;45.524;10.938;2023-04-28T02:05:12;11.90;99.30
41256;DHT22;26989;45.524;10.938;2023-04-28T02:07:38;12.00;99.40
41256;DHT22;26989;45.524;10.938;2023-04-28T02:10:07;12.00;99.50
41256;DHT22;26989;45.524;10.938;2023-04-28T02:12:34;12.00;99.60
41256;DHT22;26989;45.524;10.938;2023-04-28T02:15:00;12.00;99.60
41256;DHT22;26989;45.524;10.938;2023-04-28T02:17:30;12.10;99.60
41256;DHT22;26989;45.524;10.938;2023-04-28T02:19:57;12.20;99.30
41256;DHT22;26989;45.524;10.938;2023-04-28T02:22:24;12.30;99.30
41256;DHT22;26989;45.524;10.938;2023-04-28T02:24:51;12.40;99.20
41256;DHT22;26989;45.524;10.938;2023-04-28T02:27:18;12.20;99.50
41256;DHT22;26989;45.524;10.938;2023-04-28T02:29:45;12.30;99.30
41256;DHT22;26989;45.524;10.938;2023-04-28T02:32:12;12.30;99.50
41256;DHT22;26989;45.524;10.938;2023-04-28T02:34:39;12.30;99.50
41256;DHT22;26989;45.524;10.938;2023-04-28T02:37:05;12.40;99.40
41256;DHT22;26989;45.524;10.938;2023-04-28T02:39:32;12.40;99.40
41256;DHT22;26989;45.524;10.938;2023-04-28T02:41:59;12.30;99.60
41256;DHT22;26989;45.524;10.938;2023-04-28T02:44:26;12.20;99.70
41256;DHT22;26989;45.524;10.938;2023-04-28T02:46:53;12.20;99.90
41256;DHT22;26989;45.524;10.938;2023-04-28T02:49:20;12.30;99.80
41256;DHT22;26989;45.524;10.938;2023-04-28T02:51:46;12.30;99.70
41256;DHT22;26989;45.524;10.938;2023-04-28T02:54:13;12.30;99.80
41256;DHT22;26989;45.524;10.938;2023-04-28T02:56:41;12.30;99.90
41256;DHT22;26989;45.524;10.938;2023-04-28T02:59:07;12.20;99.90
41256;DHT22;26989;45.524;10.938;2023-04-28T03:01:34;12.10;99.90
41256;DHT22;26989;45.524;10.938;2023-04-28T03:04:01;12.00;99.90
41256;DHT22;26989;45.524;10.938;2023-04-28T03:06:29;12.10;99.90
41256;DHT22;26989;45.524;10.938;2023-04-28T03:08:55;12.10;99.90
41256;DHT22;26989;45.524;10.938;2023-04-28T03:11:22;12.10;99.90
41256;DHT22;26989;45.524;10.938;2023-04-28T03:13:49;12.00;99.90
41256;DHT22;26989;45.524;10.938;2023-04-28T03:16:16;11.80;99.90
41256;DHT22;26989;45.524;10.938;2023-04-28T03:18:43;11.70;99.90
41256;DHT22;26989;45.524;10.938;2023-04-28T03:21:10;11.50;99.90
41256;DHT22;26989;45.524;10.938;2023-04-28T03:23:37;11.50;99.90
41256;DHT22;26989;45.524;10.938;2023-04-28T03:26:03;11.20;99.90
41256;DHT22;26989;45.524;10.938;2023-04-28T03:28:30;11.00;99.90
41256;DHT22;26989;45.524;10.938;2023-04-28T03:30:57;10.90;99.90
41256;DHT22;26989;45.524;10.938;2023-04-28T03:33:24;10.70;99.90
41256;DHT22;26989;45.524;10.938;2023-04-28T03:35:51;10.60;99.90
41256;DHT22;26989;45.524;10.938;2023-04-28T03:38:19;10.60;99.90
41256;DHT22;26989;45.524;10.938;2023-04-28T03:40:46;10.60;99.90
41256;DHT22;26989;45.524;10.938;2023-04-28T03:43:13;10.60;99.90
41256;DHT22;26989;45.524;10.938;2023-04-28T03:45:40;10.50;99.90
41256;DHT22;26989;45.524;10.938;2023-04-28T03:48:07;10.40;99.90
41256;DHT22;26989;45.524;10.938;2023-04-28T03:50:34;10.40;99.90
41256;DHT22;26989;45.524;10.938;2023-04-28T03:53:01;10.30;99.90
41256;DHT22;26989;45.524;10.938;2023-04-28T03:55:28;10.30;99.90
41256;DHT22;26989;45.524;10.938;2023-04-28T03:57:55;10.20;99.90
41256;DHT22;26989;45.524;10.938;2023-04-28T04:00:21;10.10;99.90
41256;DHT22;26989;45.524;10.938;2023-04-28T04:02:51;10.00;99.90
41256;DHT22;26989;45.524;10.938;2023-04-28T04:05:18;10.00;99.90
41256;DHT22;26989;45.524;10.938;2023-04-28T04:07:45;9.90;99.90
41256;DHT22;26989;45.524;10.938;2023-04-28T04:10:12;10.00;99.90
41256;DHT22;26989;45.524;10.938;2023-04-28T04:12:39;10.00;99.90
41256;DHT22;26989;45.524;10.938;2023-04-28T04:15:06;9.80;99.90
41256;DHT22;26989;45.524;10.938;2023-04-28T04:17:33;9.70;99.90
41256;DHT22;26989;45.524;10.938;2023-04-28T04:20:00;9.50;99.90
41256;DHT22;26989;45.524;10.938;2023-04-28T04:22:27;9.40;99.90
41256;DHT22;26989;45.524;10.938;2023-04-28T04:24:54;9.40;99.90
41256;DHT22;26989;45.524;10.938;2023-04-28T04:27:20;9.50;99.90
41256;DHT22;26989;45.524;10.938;2023-04-28T04:29:48;9.70;99.90
41256;DHT22;26989;45.524;10.938;2023-04-28T04:32:14;9.80;99.90
41256;DHT22;26989;45.524;10.938;2023-04-28T04:34:41;10.00;99.90
41256;DHT22;26989;45.524;10.938;2023-04-28T04:37:08;10.00;99.90
41256;DHT22;26989;45.524;10.938;2023-04-28T04:39:35;9.90;99.90
41256;DHT22;26989;45.524;10.938;2023-04-28T04:42:02;9.90;99.90
41256;DHT22;26989;45.524;10.938;2023-04-28T04:44:49;9.90;99.90
41256;DHT22;26989;45.524;10.938;2023-04-28T04:47:15;10.00;99.90
41256;DHT22;26989;45.524;10.938;2023-04-28T04:49:42;10.20;99.90
41256;DHT22;26989;45.524;10.938;2023-04-28T04:52:09;10.30;99.90
41256;DHT22;26989;45.524;10.938;2023-04-28T04:54:36;10.30;99.90
41256;DHT22;26989;45.524;10.938;2023-04-28T04:57:03;10.40;99.90
41256;DHT22;26989;45.524;10.938;2023-04-28T04:59:30;10.50;99.90
41256;DHT22;26989;45.524;10.938;2023-04-28T05:01:57;10.70;99.90
41256;DHT22;26989;45.524;10.938;2023-04-28T05:04:24;10.80;99.90
41256;DHT22;26989;45.524;10.938;2023-04-28T05:06:51;10.70;99.90
41256;DHT22;26989;45.524;10.938;2023-04-28T05:09:18;10.60;99.90
41256;DHT22;26989;45.524;10.938;2023-04-28T05:11:45;10.60;99.90
41256;DHT22;26989;45.524;10.938;2023-04-28T05:14:11;10.60;99.90
41256;DHT22;26989;45.524;10.938;2023-04-28T05:16:38;10.60;99.90
41256;DHT22;26989;45.524;10.938;2023-04-28T05:19:05;10.70;99.90
41256;DHT22;26989;45.524;10.938;2023-04-28T05:21:32;10.90;99.90
41256;DHT22;26989;45.524;10.938;2023-04-28T05:23:59;11.20;99.90
41256;DHT22;26989;45.524;10.938;2023-04-28T05:26:26;11.30;99.90
41256;DHT22;26989;45.524;10.938;2023-04-28T05:28:53;11.30;99.90
41256;DHT22;26989;45.524;10.938;2023-04-28T05:31:20;11.50;99.90
41256;DHT22;26989;45.524;10.938;2023-04-28T05:33:46;11.70;99.90
41256;DHT22;26989;45.524;10.938;2023-04-28T05:36:13;11.90;99.90
41256;DHT22;26989;45.524;10.938;2023-04-28T05:38:43;12.00;99.90
41256;DHT22;26989;45.524;10.938;2023-04-28T05:41:09;12.10;99.90
41256;DHT22;26989;45.524;10.938;2023-04-28T05:43:37;12.10;99.90
41256;DHT22;26989;45.524;10.938;2023-04-28T05:46:03;12.20;99.90
41256;DHT22;26989;45.524;10.938;2023-04-28T05:48:40;12.10;99.90
41256;DHT22;26989;45.524;10.938;2023-04-28T05:51:07;12.50;99.90
41256;DHT22;26989;45.524;10.938;2023-04-28T05:53:33;13.10;99.90
41256;DHT22;26989;45.524;10.938;2023-04-28T05:56:03;13.50;99.90
41256;DHT22;26989;45.524;10.938;2023-04-28T05:58:30;13.60;99.90
41256;DHT22;26989;45.524;10.938;2023-04-28T06:00:57;13.60;99.90
41256;DHT22;26989;45.524;10.938;2023-04-28T06:03:24;13.40;99.90
41256;DHT22;26989;45.524;10.938;2023-04-28T06:05:51;13.40;99.90
41256;DHT22;26989;45.524;10.938;2023-04-28T06:08:18;13.70;99.90
41256;DHT22;26989;45.524;10.938;2023-04-28T06:10:45;13.60;99.90
41256;DHT22;26989;45.524;10.938;2023-04-28T06:13:12;13.60;99.90
41256;DHT22;26989;45.524;10.938;2023-04-28T06:15:40;14.00;99.90
41256;DHT22;26989;45.524;10.938;2023-04-28T06:18:07;13.80;99.90
41256;DHT22;26989;45.524;10.938;2023-04-28T06:20:35;13.80;99.90
41256;DHT22;26989;45.524;10.938;2023-04-28T06:23:02;13.60;99.90
41256;DHT22;26989;45.524;10.938;2023-04-28T06:25:29;13.50;99.90
41256;DHT22;26989;45.524;10.938;2023-04-28T06:27:56;13.70;99.90
41256;DHT22;26989;45.524;10.938;2023-04-28T06:30:23;13.70;99.90
41256;DHT22;26989;45.524;10.938;2023-04-28T06:32:51;13.80;99.90
41256;DHT22;26989;45.524;10.938;2023-04-28T06:35:18;13.90;99.90
41256;DHT22;26989;45.524;10.938;2023-04-28T06:37:45;14.20;99.90
41256;DHT22;26989;45.524;10.938;2023-04-28T06:40:12;14.60;98.80
41256;DHT22;26989;45.524;10.938;2023-04-28T06:42:39;15.00;97.90
41256;DHT22;26989;45.524;10.938;2023-04-28T06:45:07;15.20;97.80
41256;DHT22;26989;45.524;10.938;2023-04-28T06:47:34;15.60;97.40
41256;DHT22;26989;45.524;10.938;2023-04-28T06:50:02;15.90;97.50
41256;DHT22;26989;45.524;10.938;2023-04-28T06:52:29;16.10;97.40
41256;DHT22;26989;45.524;10.938;2023-04-28T06:55:06;16.10;97.50
41256;DHT22;26989;45.524;10.938;2023-04-28T06:57:33;16.20;96.50
41256;DHT22;26989;45.524;10.938;2023-04-28T07:00:00;16.60;96.50
41256;DHT22;26989;45.524;10.938;2023-04-28T07:02:27;16.80;96.30
41256;DHT22;26989;45.524;10.938;2023-04-28T07:04:55;16.90;94.80
41256;DHT22;26989;45.524;10.938;2023-04-28T07:07:22;17.20;94.20
41256;DHT22;26989;45.524;10.938;2023-04-28T07:09:48;17.00;93.60
41256;DHT22;26989;45.524;10.938;2023-04-28T07:12:15;16.90;93.90
41256;DHT22;26989;45.524;10.938;2023-04-28T07:14:42;17.00;93.60
41256;DHT22;26989;45.524;10.938;2023-04-28T07:17:09;17.10;93.50
41256;DHT22;26989;45.524;10.938;2023-04-28T07:19:36;17.00;93.90
41256;DHT22;26989;45.524;10.938;2023-04-28T07:22:03;16.90;94.00
41256;DHT22;26989;45.524;10.938;2023-04-28T07:24:29;17.10;93.70
41256;DHT22;26989;45.524;10.938;2023-04-28T07:26:57;17.10;94.00
41256;DHT22;26989;45.524;10.938;2023-04-28T07:29:24;17.40;94.10
41256;DHT22;26989;45.524;10.938;2023-04-28T07:31:50;17.10;93.50
41256;DHT22;26989;45.524;10.938;2023-04-28T07:34:17;17.30;94.20
41256;DHT22;26989;45.524;10.938;2023-04-28T07:36:44;17.30;94.40
41256;DHT22;26989;45.524;10.938;2023-04-28T07:39:11;17.30;94.00
41256;DHT22;26989;45.524;10.938;2023-04-28T07:41:39;17.60;94.00
41256;DHT22;26989;45.524;10.938;2023-04-28T07:44:06;17.50;92.80
41256;DHT22;26989;45.524;10.938;2023-04-28T07:46:37;17.80;92.50
41256;DHT22;26989;45.524;10.938;2023-04-28T07:49:04;18.40;92.50
41256;DHT22;26989;45.524;10.938;2023-04-28T07:51:31;18.40;92.30
41256;DHT22;26989;45.524;10.938;2023-04-28T07:53:57;18.50;91.80
41256;DHT22;26989;45.524;10.938;2023-04-28T07:56:25;18.70;91.30
41256;DHT22;26989;45.524;10.938;2023-04-28T07:58:56;18.00;92.30
41256;DHT22;26989;45.524;10.938;2023-04-28T08:01:23;17.10;93.00
41256;DHT22;26989;45.524;10.938;2023-04-28T08:03:50;17.60;93.00
41256;DHT22;26989;45.524;10.938;2023-04-28T08:06:17;17.60;92.50
41256;DHT22;26989;45.524;10.938;2023-04-28T08:08:44;17.90;92.90
41256;DHT22;26989;45.524;10.938;2023-04-28T08:11:11;18.20;92.70
41256;DHT22;26989;45.524;10.938;2023-04-28T08:13:38;18.10;92.10
41256;DHT22;26989;45.524;10.938;2023-04-28T08:16:05;18.00;92.00
41256;DHT22;26989;45.524;10.938;2023-04-28T08:18:32;18.10;92.50
41256;DHT22;26989;45.524;10.938;2023-04-28T08:20:59;18.30;92.40
41256;DHT22;26989;45.524;10.938;2023-04-28T08:23:26;18.50;92.10
41256;DHT22;26989;45.524;10.938;2023-04-28T08:25:54;18.90;92.10
41256;DHT22;26989;45.524;10.938;2023-04-28T08:28:21;19.10;91.70
41256;DHT22;26989;45.524;10.938;2023-04-28T08:30:48;19.40;91.30
41256;DHT22;26989;45.524;10.938;2023-04-28T08:33:15;19.40;90.60
41256;DHT22;26989;45.524;10.938;2023-04-28T08:35:42;19.20;90.70
41256;DHT22;26989;45.524;10.938;2023-04-28T08:38:08;19.80;91.00
41256;DHT22;26989;45.524;10.938;2023-04-28T08:40:39;19.60;90.70
41256;DHT22;26989;45.524;10.938;2023-04-28T08:43:08;20.10;90.20
41256;DHT22;26989;45.524;10.938;2023-04-28T08:45:42;19.70;90.50
41256;DHT22;26989;45.524;10.938;2023-04-28T08:48:21;19.80;90.60
41256;DHT22;26989;45.524;10.938;2023-04-28T08:50:50;20.20;91.10
41256;DHT22;26989;45.524;10.938;2023-04-28T08:53:24;20.70;90.40
41256;DHT22;26989;45.524;10.938;2023-04-28T08:55:56;20.30;90.60
41256;DHT22;26989;45.524;10.938;2023-04-28T08:58:26;20.50;90.30
41256;DHT22;26989;45.524;10.938;2023-04-28T09:00:54;20.40;90.50
41256;DHT22;26989;45.524;10.938;2023-04-28T09:03:20;20.50;90.90
41256;DHT22;26989;45.524;10.938;2023-04-28T09:05:48;20.70;90.70
41256;DHT22;26989;45.524;10.938;2023-04-28T09:08:15;20.70;90.00
41256;DHT22;26989;45.524;10.938;2023-04-28T09:10:42;21.10;89.50
41256;DHT22;26989;45.524;10.938;2023-04-28T09:13:09;20.80;90.00
41256;DHT22;26989;45.524;10.938;2023-04-28T09:15:37;20.50;89.00
41256;DHT22;26989;45.524;10.938;2023-04-28T09:18:07;20.30;89.10
41256;DHT22;26989;45.524;10.938;2023-04-28T09:20:35;20.40;88.50
41256;DHT22;26989;45.524;10.938;2023-04-28T09:26:01;20.30;88.30
41256;DHT22;26989;45.524;10.938;2023-04-28T09:28:34;20.30;87.00
41256;DHT22;26989;45.524;10.938;2023-04-28T09:31:02;20.00;86.80
41256;DHT22;26989;45.524;10.938;2023-04-28T09:33:30;20.10;88.50
41256;DHT22;26989;45.524;10.938;2023-04-28T09:35:57;20.30;88.10
41256;DHT22;26989;45.524;10.938;2023-04-28T09:38:24;20.00;86.40
41256;DHT22;26989;45.524;10.938;2023-04-28T09:40:58;20.40;86.80
41256;DHT22;26989;45.524;10.938;2023-04-28T09:45:53;20.20;87.90
41256;DHT22;26989;45.524;10.938;2023-04-28T09:48:28;19.60;87.80
41256;DHT22;26989;45.524;10.938;2023-04-28T09:50:56;19.60;89.20
41256;DHT22;26989;45.524;10.938;2023-04-28T09:53:25;19.90;90.10
41256;DHT22;26989;45.524;10.938;2023-04-28T09:55:54;19.90;90.40
41256;DHT22;26989;45.524;10.938;2023-04-28T09:58:23;20.20;90.30
41256;DHT22;26989;45.524;10.938;2023-04-28T10:00:55;20.20;90.50
41256;DHT22;26989;45.524;10.938;2023-04-28T10:03:27;20.40;90.40
41256;DHT22;26989;45.524;10.938;2023-04-28T10:05:57;20.30;90.20
41256;DHT22;26989;45.524;10.938;2023-04-28T10:08:25;20.10;90.20
41256;DHT22;26989;45.524;10.938;2023-04-28T10:10:53;20.30;90.70
41256;DHT22;26989;45.524;10.938;2023-04-28T10:13:22;20.30;90.70
41256;DHT22;26989;45.524;10.938;2023-04-28T10:15:50;20.30;90.60
41256;DHT22;26989;45.524;10.938;2023-04-28T10:18:22;20.40;89.30
41256;DHT22;26989;45.524;10.938;2023-04-28T10:20:53;20.30;90.50
41256;DHT22;26989;45.524;10.938;2023-04-28T10:25:56;20.20;89.70
41256;DHT22;26989;45.524;10.938;2023-04-28T10:28:26;20.00;88.90
41256;DHT22;26989;45.524;10.938;2023-04-28T10:31:10;20.00;87.40
41256;DHT22;26989;45.524;10.938;2023-04-28T10:33:39;20.10;89.30
41256;DHT22;26989;45.524;10.938;2023-04-28T10:36:07;20.20;87.70
41256;DHT22;26989;45.524;10.938;2023-04-28T10:38:35;20.10;85.60
41256;DHT22;26989;45.524;10.938;2023-04-28T10:41:02;20.40;84.80
41256;DHT22;26989;45.524;10.938;2023-04-28T10:58:42;20.60;80.20
41256;DHT22;26989;45.524;10.938;2023-04-28T11:03:59;20.20;82.10
41256;DHT22;26989;45.524;10.938;2023-04-28T11:06:35;20.40;80.00
41256;DHT22;26989;45.524;10.938;2023-04-28T11:16:59;21.00;79.60
41256;DHT22;26989;45.524;10.938;2023-04-28T11:21:59;21.30;76.60
41256;DHT22;26989;45.524;10.938;2023-04-28T11:24:27;21.30;75.20
41256;DHT22;26989;45.524;10.938;2023-04-28T11:26:59;21.90;77.00
41256;DHT22;26989;45.524;10.938;2023-04-28T11:29:36;22.00;75.20
41256;DHT22;26989;45.524;10.938;2023-04-28T11:32:05;21.90;74.70
41256;DHT22;26989;45.524;10.938;2023-04-28T11:34:33;21.90;75.00
41256;DHT22;26989;45.524;10.938;2023-04-28T11:37:00;21.80;75.10
41256;DHT22;26989;45.524;10.938;2023-04-28T11:39:30;21.70;75.90
41256;DHT22;26989;45.524;10.938;2023-04-28T11:41:59;21.70;75.10
41256;DHT22;26989;45.524;10.938;2023-04-28T11:44:27;21.50;75.50
41256;DHT22;26989;45.524;10.938;2023-04-28T11:46:58;21.50;74.90
41256;DHT22;26989;45.524;10.938;2023-04-28T11:49:30;21.50;74.40
41256;DHT22;26989;45.524;10.938;2023-04-28T11:52:06;21.40;74.60
41256;DHT22;26989;45.524;10.938;2023-04-28T11:54:34;21.00;75.10
41256;DHT22;26989;45.524;10.938;2023-04-28T11:57:01;21.20;74.40
41256;DHT22;26989;45.524;10.938;2023-04-28T11:59:32;21.20;76.40
41256;DHT22;26989;45.524;10.938;2023-04-28T12:02:00;21.10;76.80
41256;DHT22;26989;45.524;10.938;2023-04-28T12:04:35;21.20;76.80
41256;DHT22;26989;45.524;10.938;2023-04-28T12:07:15;21.10;76.40
41256;DHT22;26989;45.524;10.938;2023-04-28T12:09:45;21.10;76.70
41256;DHT22;26989;45.524;10.938;2023-04-28T12:12:29;21.00;77.70
41256;DHT22;26989;45.524;10.938;2023-04-28T12:15:16;21.20;77.30
41256;DHT22;26989;45.524;10.938;2023-04-28T12:17:45;21.20;76.20
41256;DHT22;26989;45.524;10.938;2023-04-28T12:20:36;21.00;77.50
41256;DHT22;26989;45.524;10.938;2023-04-28T12:23:04;21.00;76.40
41256;DHT22;26989;45.524;10.938;2023-04-28T12:25:31;20.30;77.10
41256;DHT22;26989;45.524;10.938;2023-04-28T12:28:05;20.10;77.10
41256;DHT22;26989;45.524;10.938;2023-04-28T12:30:35;20.60;77.90
41256;DHT22;26989;45.524;10.938;2023-04-28T12:33:24;21.10;77.30
41256;DHT22;26989;45.524;10.938;2023-04-28T12:35:52;21.20;77.30
41256;DHT22;26989;45.524;10.938;2023-04-28T12:38:23;21.30;77.80
41256;DHT22;26989;45.524;10.938;2023-04-28T12:40:50;21.40;77.20
41256;DHT22;26989;45.524;10.938;2023-04-28T12:43:18;21.40;77.00
41256;DHT22;26989;45.524;10.938;2023-04-28T12:45:44;21.50;77.10
41256;DHT22;26989;45.524;10.938;2023-04-28T12:48:11;21.50;76.40
41256;DHT22;26989;45.524;10.938;2023-04-28T12:50:38;21.30;75.70
41256;DHT22;26989;45.524;10.938;2023-04-28T12:53:05;20.60;76.80
41256;DHT22;26989;45.524;10.938;2023-04-28T12:55:32;21.00;77.90
41256;DHT22;26989;45.524;10.938;2023-04-28T12:57:59;21.20;77.80
41256;DHT22;26989;45.524;10.938;2023-04-28T13:00:26;21.50;78.00
41256;DHT22;26989;45.524;10.938;2023-04-28T13:02:53;21.60;77.40
41256;DHT22;26989;45.524;10.938;2023-04-28T13:05:20;21.60;76.40
41256;DHT22;26989;45.524;10.938;2023-04-28T13:07:47;21.60;77.80
41256;DHT22;26989;45.524;10.938;2023-04-28T13:10:16;21.80;77.20
41256;DHT22;26989;45.524;10.938;2023-04-28T13:12:44;21.90;77.80
41256;DHT22;26989;45.524;10.938;2023-04-28T13:15:11;21.80;77.20
41256;DHT22;26989;45.524;10.938;2023-04-28T13:17:38;21.90;78.30
41256;DHT22;26989;45.524;10.938;2023-04-28T13:20:06;22.10;77.40
41256;DHT22;26989;45.524;10.938;2023-04-28T13:22:33;22.10;76.50
41256;DHT22;26989;45.524;10.938;2023-04-28T13:25:00;22.10;77.80
41256;DHT22;26989;45.524;10.938;2023-04-28T13:27:27;22.20;78.30
41256;DHT22;26989;45.524;10.938;2023-04-28T13:29:55;22.20;78.30
41256;DHT22;26989;45.524;10.938;2023-04-28T13:32:24;22.20;76.70
41256;DHT22;26989;45.524;10.938;2023-04-28T13:34:51;22.00;78.20
41256;DHT22;26989;45.524;10.938;2023-04-28T13:37:18;21.60;77.30
41256;DHT22;26989;45.524;10.938;2023-04-28T13:39:45;21.70;78.30
41256;DHT22;26989;45.524;10.938;2023-04-28T13:42:12;21.90;77.20
41256;DHT22;26989;45.524;10.938;2023-04-28T13:44:39;22.00;78.40
41256;DHT22;26989;45.524;10.938;2023-04-28T13:47:06;22.10;77.20
41256;DHT22;26989;45.524;10.938;2023-04-28T13:49:35;22.20;77.00
41256;DHT22;26989;45.524;10.938;2023-04-28T13:52:02;22.00;78.00
41256;DHT22;26989;45.524;10.938;2023-04-28T13:54:30;21.70;77.40
41256;DHT22;26989;45.524;10.938;2023-04-28T13:56:57;21.80;78.40
41256;DHT22;26989;45.524;10.938;2023-04-28T13:59:23;21.50;78.40
41256;DHT22;26989;45.524;10.938;2023-04-28T14:01:50;21.60;78.80
41256;DHT22;26989;45.524;10.938;2023-04-28T14:04:17;21.70;79.30
41256;DHT22;26989;45.524;10.938;2023-04-28T14:06:45;21.90;79.20
41256;DHT22;26989;45.524;10.938;2023-04-28T14:09:12;22.10;78.80
41256;DHT22;26989;45.524;10.938;2023-04-28T14:11:38;21.70;79.20
41256;DHT22;26989;45.524;10.938;2023-04-28T14:14:06;21.10;79.20
41256;DHT22;26989;45.524;10.938;2023-04-28T14:16:32;21.30;79.90
41256;DHT22;26989;45.524;10.938;2023-04-28T14:18:59;21.50;79.80
41256;DHT22;26989;45.524;10.938;2023-04-28T14:21:27;21.30;79.60
41256;DHT22;26989;45.524;10.938;2023-04-28T14:23:54;20.70;80.70
41256;DHT22;26989;45.524;10.938;2023-04-28T14:26:21;21.30;81.30
41256;DHT22;26989;45.524;10.938;2023-04-28T14:28:49;21.70;81.30
41256;DHT22;26989;45.524;10.938;2023-04-28T14:31:16;22.20;79.60
41256;DHT22;26989;45.524;10.938;2023-04-28T14:33:43;22.20;78.70
41256;DHT22;26989;45.524;10.938;2023-04-28T14:36:10;22.20;78.90
41256;DHT22;26989;45.524;10.938;2023-04-28T14:38:37;22.30;79.40
41256;DHT22;26989;45.524;10.938;2023-04-28T14:41:07;21.30;80.10
41256;DHT22;26989;45.524;10.938;2023-04-28T14:43:34;21.60;80.20
41256;DHT22;26989;45.524;10.938;2023-04-28T14:46:01;21.90;79.90
41256;DHT22;26989;45.524;10.938;2023-04-28T14:48:28;22.00;79.20
41256;DHT22;26989;45.524;10.938;2023-04-28T14:50:56;22.20;79.30
41256;DHT22;26989;45.524;10.938;2023-04-28T14:53:23;21.90;79.00
41256;DHT22;26989;45.524;10.938;2023-04-28T14:55:50;22.00;80.00
41256;DHT22;26989;45.524;10.938;2023-04-28T14:58:17;22.20;79.80
41256;DHT22;26989;45.524;10.938;2023-04-28T15:00:43;22.20;81.00
41256;DHT22;26989;45.524;10.938;2023-04-28T15:03:10;22.40;80.50
41256;DHT22;26989;45.524;10.938;2023-04-28T15:05:38;22.20;80.50
41256;DHT22;26989;45.524;10.938;2023-04-28T15:08:05;22.10;81.70
41256;DHT22;26989;45.524;10.938;2023-04-28T15:10:37;22.70;80.80
41256;DHT22;26989;45.524;10.938;2023-04-28T15:13:05;22.70;80.30
41256;DHT22;26989;45.524;10.938;2023-04-28T15:15:33;22.90;81.00
41256;DHT22;26989;45.524;10.938;2023-04-28T15:18:00;22.90;80.30
41256;DHT22;26989;45.524;10.938;2023-04-28T15:20:28;22.90;81.20
41256;DHT22;26989;45.524;10.938;2023-04-28T15:22:56;22.80;80.80
41256;DHT22;26989;45.524;10.938;2023-04-28T15:25:23;22.90;80.50
41256;DHT22;26989;45.524;10.938;2023-04-28T15:27:50;22.80;80.30
41256;DHT22;26989;45.524;10.938;2023-04-28T15:30:18;22.80;80.20
41256;DHT22;26989;45.524;10.938;2023-04-28T15:32:45;22.80;80.80
41256;DHT22;26989;45.524;10.938;2023-04-28T15:35:14;22.80;81.40
41256;DHT22;26989;45.524;10.938;2023-04-28T15:37:42;22.90;80.60
41256;DHT22;26989;45.524;10.938;2023-04-28T15:40:12;22.90;79.60
41256;DHT22;26989;45.524;10.938;2023-04-28T15:42:39;22.70;79.40
41256;DHT22;26989;45.524;10.938;2023-04-28T15:45:15;22.70;81.00
41256;DHT22;26989;45.524;10.938;2023-04-28T15:47:43;22.70;81.10
41256;DHT22;26989;45.524;10.938;2023-04-28T15:50:11;22.70;80.30
41256;DHT22;26989;45.524;10.938;2023-04-28T15:52:42;22.60;81.10
41256;DHT22;26989;45.524;10.938;2023-04-28T15:55:13;22.60;81.80
41256;DHT22;26989;45.524;10.938;2023-04-28T15:57:41;22.60;82.00